createdAt,value
2022-10-19T00:07:39.000Z,51.50
2022-10-19T00:27:39.000Z,194.10
2022-10-19T00:37:39.000Z,34.90
2022-10-19T00:47:40.000Z,32.60
2022-10-19T00:57:40.000Z,64.60
2022-10-19T01:07:40.000Z,77.80
2022-10-19T01:17:41.000Z,56.20
2022-10-19T01:27:41.000Z,78.40
2022-10-19T01:37:41.000Z,66.90
2022-10-19T01:57:42.000Z,103.50
2022-10-19T02:07:42.000Z,97.90
2022-10-19T02:17:42.000Z,114.00
2022-10-19T02:27:43.000Z,122.50
2022-10-19T02:37:43.000Z,94.40
2022-10-19T02:47:43.000Z,77.50
2022-10-19T02:57:44.000Z,92.20
2022-10-19T03:07:44.000Z,55.80
2022-10-19T03:27:44.000Z,91.30
2022-10-19T03:37:45.000Z,90.70
2022-10-19T03:47:45.000Z,74.10
2022-10-19T03:57:45.000Z,73.20
2022-10-19T04:07:46.000Z,85.80
2022-10-19T04:38:04.000Z,83.40
2022-10-19T04:38:04.000Z,95.10
2022-10-19T04:48:04.000Z,84.80
2022-10-19T04:58:04.000Z,78.60
2022-10-19T05:08:04.000Z,41.00
2022-10-19T05:18:04.000Z,69.40
2022-10-19T05:28:05.000Z,62.80
2022-10-19T05:38:05.000Z,55.40
2022-10-19T05:48:05.000Z,83.30
2022-10-19T06:08:05.000Z,84.10
2022-10-19T06:18:06.000Z,105.00
2022-10-19T06:28:06.000Z,66.90
2022-10-19T06:38:06.000Z,87.30
2022-10-19T06:48:06.000Z,75.40
2022-10-19T08:26:54.000Z,37.00
2022-10-19T10:06:33.000Z,6.80
2022-10-19T10:06:33.000Z,6.70
2022-10-19T10:16:33.000Z,5.40
2022-10-19T14:27:54.000Z,3.00
2022-10-19T14:27:54.000Z,3.20
2022-10-19T14:37:54.000Z,9.80
2022-10-19T14:47:54.000Z,3.70
2022-10-19T14:57:54.000Z,3.30
2022-10-19T15:07:53.000Z,6.30
2022-10-19T15:17:53.000Z,6.70
2022-10-19T15:27:53.000Z,9.40
2022-10-19T15:37:53.000Z,3.20
2022-10-19T15:57:53.000Z,3.50
2022-10-19T16:07:53.000Z,12.00
2022-10-19T16:17:53.000Z,4.40
2022-10-19T16:27:53.000Z,13.00
2022-10-19T16:37:53.000Z,4.50
2022-10-19T16:47:53.000Z,23.20
2022-10-19T16:57:53.000Z,10.30
2022-10-19T17:07:53.000Z,4.70
2022-10-19T17:27:53.000Z,10.30
2022-10-19T17:37:53.000Z,5.00
2022-10-19T17:47:53.000Z,5.60
2022-10-19T17:57:54.000Z,5.60
2022-10-19T18:07:54.000Z,8.80
2022-10-19T18:17:54.000Z,6.60
2022-10-19T18:27:55.000Z,19.00
2022-10-19T18:37:55.000Z,12.60
2022-10-19T18:57:56.000Z,15.10
2022-10-19T19:07:56.000Z,16.30
2022-10-19T19:17:57.000Z,13.00
2022-10-19T19:27:57.000Z,9.20
2022-10-19T19:37:58.000Z,13.50
2022-10-19T19:47:59.000Z,15.80
2022-10-19T19:57:59.000Z,20.30
2022-10-19T20:08:00.000Z,20.10
2022-10-19T20:28:01.000Z,40.10
2022-10-19T20:38:02.000Z,28.50
2022-10-19T20:48:02.000Z,38.40
2022-10-19T20:58:03.000Z,28.40
2022-10-19T21:08:04.000Z,36.70
2022-10-19T21:18:04.000Z,47.70
2022-10-19T21:28:05.000Z,42.10
2022-10-19T21:38:06.000Z,30.20
2022-10-19T21:58:07.000Z,28.50
2022-10-19T22:08:08.000Z,38.50
2022-10-19T22:18:08.000Z,27.70
2022-10-19T22:28:09.000Z,24.80
2022-10-19T22:38:10.000Z,37.60
2022-10-19T22:48:10.000Z,31.20
2022-10-19T22:58:11.000Z,36.10
2022-10-19T23:08:12.000Z,43.60
2022-10-19T23:28:13.000Z,26.00
2022-10-19T23:38:13.000Z,47.90
2022-10-19T23:48:14.000Z,40.00
2022-10-19T23:58:15.000Z,24.00
